Time;durP1;ratioP1;P1;durP2;ratioP2;P2;SDS_P1;SDS_P2;PMS_P1;PMS_P2;Temp;Humidity;BMP_temperature;BMP_pressure;BME280_temperature;BME280_humidity;BME280_pressure;Samples;Min_cycle;Max_cycle;Signal;HPM_P1;HPM_P2
2022/11/07 00:01:58;;;;;;;24.13;4.40;;;10.70;99.90;;;;;;5053990;28;20124;-61
2022/11/07 00:04:25;;;;;;;25.60;4.93;;;10.60;99.90;;;;;;5054605;28;20110;-61
2022/11/07 00:06:52;;;;;;;25.92;4.80;;;10.70;99.90;;;;;;5054575;28;20091;-62
2022/11/07 00:09:18;;;;;;;24.48;4.47;;;10.70;99.90;;;;;;5053553;28;20461;-61
2022/11/07 00:11:45;;;;;;;24.75;4.80;;;10.70;99.90;;;;;;5053969;28;20041;-61
2022/11/07 00:14:12;;;;;;;24.63;3.92;;;10.70;99.90;;;;;;5054383;28;20045;-61
2022/11/07 00:16:39;;;;;;;31.85;4.43;;;10.70;99.90;;;;;;5053629;28;20045;-61
2022/11/07 00:19:05;;;;;;;25.83;4.43;;;10.70;99.90;;;;;;5054175;28;20057;-60
2022/11/07 00:21:32;;;;;;;24.48;4.60;;;10.70;99.90;;;;;;5052953;28;20488;-62
2022/11/07 00:23:59;;;;;;;22.15;4.32;;;10.70;99.90;;;;;;5053458;28;20072;-61
2022/11/07 00:26:25;;;;;;;27.30;3.95;;;10.70;99.90;;;;;;5045627;28;20049;-61
2022/11/07 00:28:52;;;;;;;27.10;4.78;;;10.70;99.90;;;;;;5054468;28;20451;-62
2022/11/07 00:31:19;;;;;;;23.80;3.95;;;10.70;99.90;;;;;;5053068;28;20462;-61
2022/11/07 00:33:46;;;;;;;26.05;4.18;;;10.70;99.90;;;;;;5051074;28;20495;-62
2022/11/07 00:36:12;;;;;;;26.77;4.50;;;10.70;99.90;;;;;;5052232;28;20056;-62
2022/11/07 00:38:39;;;;;;;25.95;4.45;;;10.70;99.90;;;;;;5047240;28;20041;-63
2022/11/07 00:41:06;;;;;;;25.40;4.95;;;10.70;99.90;;;;;;5053548;28;20063;-62
2022/11/07 00:43:33;;;;;;;27.10;4.65;;;10.70;99.90;;;;;;5052320;28;20098;-64
2022/11/07 00:45:59;;;;;;;26.23;5.05;;;10.80;99.90;;;;;;5053829;28;20045;-63
2022/11/07 00:48:26;;;;;;;22.65;4.18;;;10.80;99.90;;;;;;5047627;28;20127;-62
2022/11/07 00:50:53;;;;;;;26.42;5.50;;;10.80;99.90;;;;;;5052426;28;20488;-63
2022/11/07 00:53:19;;;;;;;25.92;4.50;;;10.80;99.90;;;;;;5053726;28;20064;-61
2022/11/07 00:55:46;;;;;;;20.60;3.90;;;10.90;99.90;;;;;;5053813;28;20091;-62
2022/11/07 00:58:13;;;;;;;21.00;3.85;;;10.90;99.90;;;;;;5053565;28;20049;-62
2022/11/07 01:00:40;;;;;;;26.58;4.43;;;10.90;99.90;;;;;;5053032;28;20043;-62
2022/11/07 01:05:52;;;;;;;25.55;4.40;;;10.90;99.90;;;;;;5048276;28;20045;-62
2022/11/07 01:08:18;;;;;;;25.77;4.45;;;10.90;99.90;;;;;;5053497;28;20398;-62
2022/11/07 01:10:45;;;;;;;31.77;4.65;;;10.90;99.90;;;;;;5053378;28;20040;-62
2022/11/07 01:13:12;;;;;;;21.85;4.47;;;10.90;99.90;;;;;;5022565;28;20053;-62
2022/11/07 01:15:39;;;;;;;22.30;4.53;;;10.90;99.90;;;;;;5052824;28;20504;-62
2022/11/07 01:18:05;;;;;;;25.73;4.18;;;11.00;99.90;;;;;;5052350;28;20107;-64
2022/11/07 01:20:32;;;;;;;27.10;4.82;;;11.00;99.90;;;;;;5053320;28;20554;-61
2022/11/07 01:22:59;;;;;;;26.60;3.58;;;11.00;99.90;;;;;;5053149;28;20079;-62
2022/11/07 01:25:26;;;;;;;28.65;4.55;;;11.00;99.90;;;;;;5053075;28;20044;-61
2022/11/07 01:27:52;;;;;;;25.08;4.13;;;11.00;99.90;;;;;;5052473;28;20041;-62
2022/11/07 01:30:19;;;;;;;24.85;5.20;;;11.10;99.90;;;;;;5048322;28;20064;-63
2022/11/07 01:32:46;;;;;;;24.98;3.80;;;11.10;99.90;;;;;;5057632;28;20115;-62
2022/11/07 01:35:13;;;;;;;23.13;3.80;;;11.10;99.90;;;;;;5048159;28;20456;-62
2022/11/07 01:37:40;;;;;;;20.48;4.10;;;11.10;99.90;;;;;;5047826;28;20447;-63
2022/11/07 01:40:07;;;;;;;26.55;5.15;;;11.20;99.90;;;;;;5051264;28;20099;-63
2022/11/07 01:42:34;;;;;;;26.83;4.65;;;11.20;99.90;;;;;;5054046;28;20041;-64
2022/11/07 01:45:00;;;;;;;29.63;4.57;;;11.20;99.90;;;;;;5057290;28;20041;-63
2022/11/07 01:47:27;;;;;;;21.98;3.67;;;11.20;99.90;;;;;;5056479;28;20529;-63
2022/11/07 01:49:54;;;;;;;26.40;5.78;;;11.20;99.90;;;;;;5055552;28;20041;-62
2022/11/07 01:52:21;;;;;;;33.30;4.70;;;11.20;99.90;;;;;;5050002;28;20033;-62
2022/11/07 01:54:47;;;;;;;29.40;4.38;;;11.20;99.90;;;;;;5056876;28;20044;-63
2022/11/07 01:57:14;;;;;;;27.88;4.53;;;11.20;99.90;;;;;;5051940;28;20076;-63
2022/11/07 01:59:41;;;;;;;23.63;4.55;;;11.20;99.90;;;;;;5057428;28;20444;-61
2022/11/07 02:02:07;;;;;;;19.75;3.92;;;11.20;99.90;;;;;;5056360;28;20037;-62
2022/11/07 02:04:34;;;;;;;26.88;4.10;;;11.30;99.90;;;;;;5056900;28;20527;-61
2022/11/07 02:07:01;;;;;;;22.55;4.60;;;11.30;99.90;;;;;;5056643;28;20033;-61
2022/11/07 02:09:27;;;;;;;29.63;4.78;;;11.30;99.90;;;;;;5054325;28;20075;-62
2022/11/07 02:11:59;;;;;;;25.02;5.03;;;11.30;99.90;;;;;;5054963;28;20049;-62
2022/11/07 02:14:26;;;;;;;25.90;4.90;;;11.30;99.90;;;;;;5046701;28;20045;-61
2022/11/07 02:16:53;;;;;;;24.63;4.90;;;11.40;99.90;;;;;;5055994;28;20124;-62
2022/11/07 02:19:20;;;;;;;22.98;3.92;;;11.40;99.90;;;;;;5053312;28;20492;-61
2022/11/07 02:21:46;;;;;;;22.77;4.00;;;11.30;99.90;;;;;;5054210;28;20056;-62
2022/11/07 02:24:13;;;;;;;22.95;3.75;;;11.40;99.90;;;;;;5055556;28;20386;-61
2022/11/07 02:26:40;;;;;;;26.60;4.35;;;11.40;99.90;;;;;;5055688;28;20075;-62
2022/11/07 02:29:06;;;;;;;26.17;4.30;;;11.40;99.90;;;;;;5054852;28;20079;-62
2022/11/07 02:31:33;;;;;;;21.60;3.75;;;11.30;99.90;;;;;;5055773;28;20433;-61
2022/11/07 02:34:00;;;;;;;26.15;3.75;;;11.30;99.90;;;;;;5054858;28;20041;-63
2022/11/07 02:36:26;;;;;;;17.98;3.15;;;11.30;99.90;;;;;;5055440;28;20107;-63
2022/11/07 02:38:56;;;;;;;22.17;4.00;;;11.30;99.90;;;;;;5050749;28;20079;-61
2022/11/07 02:41:23;;;;;;;22.80;3.72;;;11.30;99.90;;;;;;5052947;28;20052;-62
2022/11/07 02:43:49;;;;;;;19.20;3.70;;;11.30;99.90;;;;;;5053828;28;20115;-61
2022/11/07 02:46:16;;;;;;;17.45;3.78;;;11.30;99.90;;;;;;5055889;28;20083;-62
2022/11/07 02:48:43;;;;;;;26.88;4.25;;;11.30;99.90;;;;;;5051279;28;20528;-62
2022/11/07 02:51:09;;;;;;;24.38;3.72;;;11.30;99.90;;;;;;5055914;28;20045;-61
2022/11/07 02:53:36;;;;;;;24.15;3.60;;;11.30;99.90;;;;;;5052186;28;20132;-62
2022/11/07 02:56:03;;;;;;;18.80;3.88;;;11.30;99.90;;;;;;5054533;28;20048;-62
2022/11/07 02:58:30;;;;;;;20.75;3.58;;;11.30;99.90;;;;;;5054421;28;20052;-62
2022/11/07 03:01:05;;;;;;;19.23;3.42;;;11.40;99.90;;;;;;5053907;28;20055;-63
2022/11/07 03:03:32;;;;;;;22.65;4.03;;;11.40;99.90;;;;;;5053406;28;20098;-62
2022/11/07 03:05:59;;;;;;;23.38;3.85;;;11.40;99.90;;;;;;5053236;28;20037;-62
2022/11/07 03:08:26;;;;;;;22.27;4.32;;;11.40;99.90;;;;;;5054379;28;20052;-62
2022/11/07 03:10:52;;;;;;;21.92;3.80;;;11.40;99.90;;;;;;5052696;28;20404;-62
2022/11/07 03:13:19;;;;;;;22.75;3.47;;;11.40;99.90;;;;;;5042551;28;20037;-62
2022/11/07 03:15:46;;;;;;;24.33;4.03;;;11.40;99.90;;;;;;5051247;28;20072;-63
2022/11/07 03:18:12;;;;;;;19.33;3.83;;;11.40;99.90;;;;;;5050355;28;20080;-62
2022/11/07 03:20:39;;;;;;;18.90;4.20;;;11.30;99.90;;;;;;5051982;28;20071;-62
2022/11/07 03:23:06;;;;;;;26.95;4.43;;;11.30;99.90;;;;;;5045390;28;20037;-63
2022/11/07 03:25:32;;;;;;;27.00;4.00;;;11.30;99.90;;;;;;5051025;28;20127;-62
2022/11/07 03:27:59;;;;;;;19.73;3.95;;;11.40;99.90;;;;;;5055471;28;20499;-62
2022/11/07 03:30:26;;;;;;;21.52;3.58;;;11.40;99.90;;;;;;5054158;28;20041;-62
2022/11/07 03:32:53;;;;;;;25.05;4.18;;;11.40;99.90;;;;;;5054857;28;20043;-63
2022/11/07 03:35:19;;;;;;;25.40;4.95;;;11.40;99.90;;;;;;5042773;28;20116;-63
2022/11/07 03:37:46;;;;;;;25.20;5.10;;;11.40;99.90;;;;;;5055118;28;20037;-62
2022/11/07 03:40:13;;;;;;;23.10;4.72;;;11.40;99.90;;;;;;5050464;28;20048;-62
2022/11/07 03:42:39;;;;;;;27.90;4.97;;;11.40;99.90;;;;;;5054443;28;20045;-63
2022/11/07 03:45:06;;;;;;;21.40;3.83;;;11.30;99.90;;;;;;5053867;28;20049;-63
2022/11/07 03:47:33;;;;;;;25.50;4.90;;;11.40;99.90;;;;;;5038360;28;20531;-63
2022/11/07 03:50:00;;;;;;;28.40;4.78;;;11.40;99.90;;;;;;5053909;28;20033;-63
2022/11/07 03:52:26;;;;;;;24.90;4.78;;;11.40;99.90;;;;;;5053895;28;20072;-62
2022/11/07 03:54:53;;;;;;;25.02;4.28;;;11.40;99.90;;;;;;5052805;28;20543;-62
2022/11/07 03:57:20;;;;;;;28.67;4.50;;;11.50;99.90;;;;;;5050564;28;20112;-62
2022/11/07 03:59:46;;;;;;;23.25;4.00;;;11.40;99.90;;;;;;5052725;28;20041;-62
2022/11/07 04:02:13;;;;;;;25.60;4.45;;;11.40;99.90;;;;;;5051759;28;20439;-62
2022/11/07 04:04:40;;;;;;;21.65;4.55;;;11.50;99.90;;;;;;5048904;28;20052;-61
2022/11/07 04:07:07;;;;;;;24.90;4.78;;;11.50;99.90;;;;;;5049393;28;20065;-62
2022/11/07 04:09:33;;;;;;;26.73;4.38;;;11.50;99.90;;;;;;5051124;28;20048;-63
2022/11/07 04:17:31;;;;;;;29.17;4.45;;;11.60;99.90;;;;;;5052201;28;20094;-63
2022/11/07 04:19:57;;;;;;;25.10;4.10;;;11.50;99.90;;;;;;5051614;28;20081;-62
2022/11/07 04:22:24;;;;;;;30.40;5.40;;;11.60;99.90;;;;;;5053021;28;20435;-62
2022/11/07 04:24:51;;;;;;;24.33;4.32;;;11.60;99.90;;;;;;5051677;28;20067;-62
2022/11/07 04:30:17;;;;;;;26.15;4.90;;;11.60;99.90;;;;;;5050563;28;20122;-62
2022/11/07 04:32:45;;;;;;;23.95;5.03;;;11.60;99.90;;;;;;5036528;28;20044;-62
2022/11/07 04:35:11;;;;;;;26.45;4.20;;;11.70;99.90;;;;;;5048274;28;20042;-62
2022/11/07 04:37:38;;;;;;;21.80;4.57;;;11.70;99.90;;;;;;5049169;28;20072;-62
2022/11/07 04:40:05;;;;;;;24.33;4.80;;;11.70;99.90;;;;;;5051480;28;20095;-63
2022/11/07 04:42:32;;;;;;;24.70;4.53;;;11.70;99.90;;;;;;5051720;28;20114;-62
2022/11/07 04:44:59;;;;;;;27.27;4.88;;;11.70;99.90;;;;;;5051633;28;20091;-62
2022/11/07 04:47:25;;;;;;;25.60;4.47;;;11.70;99.90;;;;;;5051023;28;20049;-63
2022/11/07 04:49:52;;;;;;;30.20;5.45;;;11.70;99.90;;;;;;5053531;28;20045;-62
2022/11/07 04:52:19;;;;;;;29.70;4.97;;;11.70;99.90;;;;;;5048400;28;20118;-62
2022/11/07 04:54:46;;;;;;;30.77;6.00;;;11.70;99.90;;;;;;5050341;28;20037;-63
2022/11/07 04:57:14;;;;;;;33.35;5.05;;;11.80;99.90;;;;;;5049882;28;20485;-61
2022/11/07 04:59:41;;;;;;;31.70;5.75;;;11.80;99.90;;;;;;5051159;28;20133;-62
2022/11/07 05:02:07;;;;;;;21.88;5.63;;;11.80;99.90;;;;;;5048308;28;20075;-62
2022/11/07 05:04:34;;;;;;;26.17;4.80;;;11.80;99.90;;;;;;5067107;28;20055;-62
2022/11/07 05:07:01;;;;;;;28.27;4.78;;;11.80;99.90;;;;;;5052169;28;20033;-63
2022/11/07 05:09:28;;;;;;;34.22;5.22;;;11.80;99.90;;;;;;5050677;28;20099;-62
2022/11/07 05:11:55;;;;;;;21.55;4.70;;;11.80;99.90;;;;;;5050406;28;20087;-62
2022/11/07 05:14:22;;;;;;;26.13;4.65;;;11.90;99.90;;;;;;5050652;28;20129;-63
2022/11/07 05:16:48;;;;;;;26.63;4.93;;;11.90;99.90;;;;;;5051269;28;20045;-63
2022/11/07 05:19:16;;;;;;;31.40;5.20;;;11.90;99.90;;;;;;5048047;28;20052;-63
2022/11/07 05:21:42;;;;;;;29.85;5.38;;;11.90;99.90;;;;;;5051943;28;20120;-62
2022/11/07 05:24:09;;;;;;;25.88;5.05;;;11.90;99.90;;;;;;5052168;28;20561;-62
2022/11/07 05:26:36;;;;;;;31.35;5.13;;;12.00;99.90;;;;;;5045542;28;20092;-62
2022/11/07 05:29:02;;;;;;;25.20;4.95;;;12.00;99.90;;;;;;5045457;28;20061;-62
2022/11/07 05:31:29;;;;;;;27.60;5.13;;;12.00;99.90;;;;;;5050914;28;20076;-62
2022/11/07 05:33:56;;;;;;;25.80;4.72;;;12.00;99.90;;;;;;5051444;28;20120;-63
2022/11/07 05:36:23;;;;;;;26.20;5.03;;;12.00;99.90;;;;;;5051545;28;20095;-63
2022/11/07 05:38:49;;;;;;;24.83;4.40;;;12.10;99.90;;;;;;5050934;28;20048;-64
2022/11/07 05:41:16;;;;;;;26.70;5.32;;;12.10;99.90;;;;;;5048555;28;20102;-63
2022/11/07 05:43:43;;;;;;;27.95;6.00;;;12.10;99.90;;;;;;5051910;28;20065;-62
2022/11/07 05:46:09;;;;;;;23.80;4.47;;;12.10;99.90;;;;;;5045677;28;20044;-62
2022/11/07 05:48:36;;;;;;;24.38;4.78;;;12.10;99.90;;;;;;5050941;28;20164;-63
2022/11/07 05:51:03;;;;;;;23.02;4.45;;;12.10;99.90;;;;;;5051869;28;20033;-63
2022/11/07 05:53:30;;;;;;;25.75;4.45;;;12.10;99.90;;;;;;5052484;28;20095;-62
2022/11/07 05:55:57;;;;;;;26.20;4.15;;;12.00;99.90;;;;;;5050222;28;20043;-62
2022/11/07 05:58:23;;;;;;;25.55;4.95;;;12.00;99.90;;;;;;5052730;28;20045;-62
2022/11/07 06:00:50;;;;;;;22.83;4.50;;;12.00;99.90;;;;;;5045044;28;20476;-62
2022/11/07 06:03:18;;;;;;;19.55;4.22;;;12.00;99.90;;;;;;5049188;28;20132;-62
2022/11/07 06:05:46;;;;;;;30.23;4.50;;;12.00;99.90;;;;;;5042918;28;20045;-63
2022/11/07 06:08:13;;;;;;;22.77;4.03;;;12.00;99.90;;;;;;5045560;28;20471;-62
2022/11/07 06:10:39;;;;;;;27.42;4.63;;;12.00;99.90;;;;;;5048164;28;20037;-62
2022/11/07 06:13:06;;;;;;;24.42;4.70;;;12.00;99.90;;;;;;5052747;28;20044;-62
2022/11/07 06:15:33;;;;;;;26.52;5.40;;;12.00;99.90;;;;;;5048133;28;20128;-62
2022/11/07 06:18:00;;;;;;;28.45;4.18;;;12.00;99.90;;;;;;5052102;28;20103;-63
2022/11/07 06:20:27;;;;;;;20.52;3.65;;;12.00;99.90;;;;;;5052156;28;20500;-62
2022/11/07 06:22:55;;;;;;;21.88;4.38;;;12.00;99.90;;;;;;5052446;28;20049;-63
2022/11/07 06:25:21;;;;;;;28.50;4.63;;;12.00;99.90;;;;;;5065587;28;20127;-63
2022/11/07 06:27:48;;;;;;;25.38;4.63;;;11.90;99.90;;;;;;5050447;28;20067;-62
2022/11/07 06:30:15;;;;;;;23.70;4.63;;;11.90;99.90;;;;;;5053391;28;20128;-61
2022/11/07 06:32:43;;;;;;;32.63;5.18;;;11.90;99.90;;;;;;5053298;28;20041;-63
2022/11/07 06:35:10;;;;;;;30.55;4.60;;;11.90;99.90;;;;;;5054494;28;20037;-62
2022/11/07 06:37:36;;;;;;;22.45;4.38;;;11.90;99.90;;;;;;5052008;28;20045;-62
2022/11/07 06:40:03;;;;;;;25.90;4.97;;;11.90;99.90;;;;;;5051170;28;20036;-63
2022/11/07 06:42:31;;;;;;;27.33;5.15;;;11.90;99.90;;;;;;5053311;28;20400;-63
2022/11/07 06:44:57;;;;;;;27.83;5.47;;;11.90;99.90;;;;;;5049793;28;20072;-63
2022/11/07 06:47:24;;;;;;;25.52;4.70;;;11.90;99.90;;;;;;5055950;28;20098;-63
2022/11/07 06:49:51;;;;;;;26.60;5.15;;;11.90;99.90;;;;;;5055197;28;20098;-62
2022/11/07 06:52:18;;;;;;;27.17;5.30;;;11.90;99.90;;;;;;5054119;28;20103;-62
2022/11/07 06:54:44;;;;;;;28.05;5.20;;;11.90;99.90;;;;;;5052871;28;20057;-63
2022/11/07 06:57:11;;;;;;;25.70;5.07;;;11.90;99.90;;;;;;5050669;28;20136;-62
2022/11/07 06:59:38;;;;;;;23.45;4.65;;;11.90;99.90;;;;;;5054045;28;20075;-62
2022/11/07 07:02:04;;;;;;;26.25;4.85;;;11.90;99.90;;;;;;5047705;28;20527;-63
2022/11/07 07:04:31;;;;;;;34.58;5.50;;;11.90;99.90;;;;;;5048711;28;20120;-62
2022/11/07 07:06:58;;;;;;;26.92;5.57;;;11.90;99.90;;;;;;5052821;28;20059;-63
2022/11/07 07:09:25;;;;;;;29.83;5.13;;;11.90;99.90;;;;;;5047446;28;20493;-62
2022/11/07 07:11:51;;;;;;;30.25;5.18;;;11.90;99.90;;;;;;5049968;28;20136;-62
2022/11/07 07:14:18;;;;;;;29.98;5.00;;;12.00;99.90;;;;;;5053114;28;20116;-63
2022/11/07 07:16:45;;;;;;;35.80;5.95;;;12.00;99.90;;;;;;5049856;28;20032;-62
2022/11/07 07:19:11;;;;;;;31.70;4.53;;;12.00;99.90;;;;;;5041873;28;20057;-62
2022/11/07 07:21:38;;;;;;;35.55;5.60;;;12.00;99.90;;;;;;5053720;28;20041;-61
2022/11/07 07:24:05;;;;;;;26.08;5.53;;;12.00;99.90;;;;;;5054840;28;20045;-61
2022/11/07 07:26:31;;;;;;;24.35;4.68;;;12.10;99.90;;;;;;5050608;28;20041;-62
2022/11/07 07:28:58;;;;;;;26.95;4.50;;;12.10;99.90;;;;;;5043796;28;20080;-63
2022/11/07 07:31:25;;;;;;;27.50;5.53;;;12.20;99.90;;;;;;5051487;28;20463;-63
2022/11/07 07:33:52;;;;;;;21.50;4.90;;;12.20;99.90;;;;;;5045835;28;20037;-63
2022/11/07 07:36:20;;;;;;;26.08;5.28;;;12.30;99.90;;;;;;5047605;28;20128;-61
2022/11/07 07:38:46;;;;;;;25.38;4.75;;;12.30;99.90;;;;;;5052561;28;20045;-62
2022/11/07 07:41:13;;;;;;;24.42;4.63;;;12.40;99.90;;;;;;5054040;28;20044;-62
2022/11/07 07:43:40;;;;;;;24.75;4.65;;;12.40;99.90;;;;;;5045329;28;20121;-62
2022/11/07 07:46:06;;;;;;;26.55;4.82;;;12.40;99.90;;;;;;5052204;28;20045;-62
2022/11/07 07:48:33;;;;;;;23.45;5.40;;;12.40;99.90;;;;;;5048115;28;20128;-62
2022/11/07 07:51:00;;;;;;;27.70;5.00;;;12.50;99.90;;;;;;5050219;28;20045;-62
2022/11/07 07:53:27;;;;;;;25.20;4.32;;;12.50;99.90;;;;;;5049827;28;20512;-62
2022/11/07 07:55:53;;;;;;;27.02;4.63;;;12.60;99.90;;;;;;5046837;28;20045;-62
2022/11/07 07:58:20;;;;;;;24.77;4.82;;;12.60;99.90;;;;;;5048619;28;20418;-61
2022/11/07 08:00:47;;;;;;;22.23;4.50;;;12.60;99.90;;;;;;5052123;28;20032;-62
2022/11/07 08:03:14;;;;;;;24.25;3.85;;;12.70;99.90;;;;;;5051099;28;20065;-62
2022/11/07 08:05:41;;;;;;;22.05;4.50;;;12.70;99.90;;;;;;5035786;28;20054;-62
2022/11/07 08:08:08;;;;;;;24.00;5.05;;;12.70;99.90;;;;;;5049290;28;20179;-61
2022/11/07 08:10:34;;;;;;;23.38;4.53;;;12.80;99.90;;;;;;5048478;28;20124;-63
2022/11/07 08:13:08;;;;;;;20.48;4.20;;;12.80;99.90;;;;;;5049305;28;20060;-62
2022/11/07 08:15:34;;;;;;;28.55;6.63;;;12.80;99.90;;;;;;5051678;28;20083;-62
2022/11/07 08:18:01;;;;;;;22.88;4.30;;;12.80;99.90;;;;;;5050675;28;20431;-60
2022/11/07 08:20:28;;;;;;;27.60;5.15;;;12.90;99.90;;;;;;5051744;28;20400;-62
2022/11/07 08:22:55;;;;;;;21.50;4.80;;;12.90;99.90;;;;;;5046410;28;20049;-62
2022/11/07 08:25:22;;;;;;;26.05;5.18;;;12.90;99.90;;;;;;5040503;28;20712;-63
2022/11/07 08:27:48;;;;;;;21.63;3.78;;;12.90;99.90;;;;;;5046559;28;20037;-62
2022/11/07 08:30:15;;;;;;;19.75;3.70;;;13.00;99.90;;;;;;5046478;28;20048;-61
2022/11/07 08:32:43;;;;;;;24.70;4.43;;;13.00;99.90;;;;;;5048395;28;20044;-63
2022/11/07 08:35:10;;;;;;;26.30;4.85;;;13.00;99.90;;;;;;5052766;28;20061;-62
2022/11/07 08:37:37;;;;;;;20.13;4.22;;;13.10;99.90;;;;;;5046017;28;20049;-62
2022/11/07 08:40:04;;;;;;;23.30;4.35;;;13.10;99.90;;;;;;5051309;28;20381;-62
2022/11/07 08:42:30;;;;;;;23.80;4.82;;;13.10;99.90;;;;;;5050055;28;20072;-62
2022/11/07 08:44:57;;;;;;;21.38;4.03;;;13.20;99.90;;;;;;5048900;28;20048;-61
2022/11/07 08:47:24;;;;;;;23.33;4.55;;;13.20;99.90;;;;;;5052595;28;20040;-61
2022/11/07 08:49:50;;;;;;;21.52;4.07;;;13.20;99.90;;;;;;5050425;28;20124;-61
2022/11/07 08:52:17;;;;;;;23.60;4.82;;;13.20;99.90;;;;;;5036706;28;20118;-62
2022/11/07 08:54:44;;;;;;;21.15;3.92;;;13.30;99.90;;;;;;5052870;28;20095;-63
2022/11/07 08:57:11;;;;;;;19.27;3.90;;;13.30;99.90;;;;;;5050326;28;20072;-61
2022/11/07 08:59:37;;;;;;;18.23;2.97;;;13.30;99.90;;;;;;5052693;28;20049;-62
2022/11/07 09:02:04;;;;;;;21.92;3.85;;;13.40;99.90;;;;;;5053442;28;20083;-62
2022/11/07 09:04:51;;;;;;;14.45;3.03;;;13.40;99.90;;;;;;5053120;28;20041;-61
2022/11/07 09:07:17;;;;;;;15.23;2.95;;;13.50;99.90;;;;;;5051033;28;20094;-62
2022/11/07 09:09:44;;;;;;;14.50;2.80;;;13.50;99.90;;;;;;5052851;28;20037;-60
2022/11/07 09:12:11;;;;;;;14.60;2.90;;;13.60;99.90;;;;;;5047547;28;20416;-61
2022/11/07 09:14:38;;;;;;;13.80;2.88;;;13.60;99.90;;;;;;5051932;28;20037;-62
2022/11/07 09:17:04;;;;;;;10.77;2.15;;;13.70;99.90;;;;;;5047033;28;20454;-62
2022/11/07 09:19:31;;;;;;;12.85;2.35;;;13.70;99.90;;;;;;5051787;28;20088;-61
2022/11/07 09:21:58;;;;;;;16.23;3.40;;;13.80;99.90;;;;;;5041632;28;20049;-62
2022/11/07 09:24:24;;;;;;;12.23;2.70;;;13.80;99.90;;;;;;5051963;28;20124;-61
2022/11/07 09:26:51;;;;;;;14.02;2.50;;;13.90;99.90;;;;;;5051525;28;20558;-60
2022/11/07 09:29:18;;;;;;;14.77;3.00;;;13.90;99.90;;;;;;5050518;28;20044;-61
2022/11/07 09:31:45;;;;;;;16.27;3.13;;;13.90;99.90;;;;;;5052828;28;20041;-62
2022/11/07 09:34:11;;;;;;;13.80;3.00;;;13.90;99.90;;;;;;5051997;28;20043;-62
2022/11/07 09:36:38;;;;;;;14.38;2.80;;;14.00;99.90;;;;;;5052972;28;20041;-61
2022/11/07 09:39:05;;;;;;;12.57;2.85;;;14.00;99.90;;;;;;5052397;28;20484;-63
2022/11/07 09:41:32;;;;;;;11.93;2.90;;;14.00;99.90;;;;;;5052630;28;20488;-61
2022/11/07 09:43:59;;;;;;;16.77;3.40;;;14.10;99.90;;;;;;5051882;28;20456;-60
2022/11/07 09:46:26;;;;;;;15.93;3.15;;;14.10;99.90;;;;;;5052729;28;20361;-60
2022/11/07 09:48:52;;;;;;;14.93;3.63;;;14.20;99.90;;;;;;5052271;28;20041;-61
2022/11/07 09:51:19;;;;;;;15.45;3.00;;;14.20;99.90;;;;;;5052250;28;20498;-61
2022/11/07 09:53:46;;;;;;;17.27;3.53;;;14.20;99.90;;;;;;5052176;28;20579;-61
2022/11/07 09:56:12;;;;;;;16.60;3.63;;;14.20;99.90;;;;;;5051931;28;20098;-61
2022/11/07 09:58:39;;;;;;;10.80;2.88;;;14.30;99.90;;;;;;5052681;28;20068;-61
2022/11/07 10:01:06;;;;;;;13.93;3.08;;;14.30;99.90;;;;;;5051889;28;20041;-62
2022/11/07 10:03:33;;;;;;;16.92;3.75;;;14.30;99.90;;;;;;5053613;28;20052;-62
2022/11/07 10:06:00;;;;;;;11.70;3.28;;;14.30;99.90;;;;;;5054695;28;20070;-61
2022/11/07 10:08:26;;;;;;;12.10;2.70;;;14.30;99.90;;;;;;5055713;28;20102;-61
2022/11/07 10:10:53;;;;;;;11.63;2.95;;;14.30;99.90;;;;;;5049597;28;20041;-60
2022/11/07 10:13:20;;;;;;;16.63;3.20;;;14.30;99.90;;;;;;5055697;28;20484;-60
2022/11/07 10:15:46;;;;;;;13.65;2.70;;;14.30;99.90;;;;;;5056199;28;20398;-62
2022/11/07 10:18:13;;;;;;;15.73;3.55;;;14.30;99.90;;;;;;5056014;28;20075;-61
2022/11/07 10:20:40;;;;;;;16.83;3.22;;;14.30;99.90;;;;;;5056292;28;20136;-60
2022/11/07 10:23:07;;;;;;;15.52;3.65;;;14.20;99.90;;;;;;5055863;28;20045;-60
2022/11/07 10:25:34;;;;;;;17.00;3.67;;;14.30;99.90;;;;;;5056063;28;20457;-61
2022/11/07 10:28:00;;;;;;;20.50;4.15;;;14.20;99.90;;;;;;5055494;28;20103;-62
2022/11/07 10:30:27;;;;;;;17.38;3.47;;;14.30;99.90;;;;;;5052709;28;20463;-63
2022/11/07 10:32:54;;;;;;;21.38;3.65;;;14.30;99.90;;;;;;5055811;28;20068;-61
2022/11/07 10:35:23;;;;;;;20.10;4.20;;;14.30;99.90;;;;;;5055361;28;20445;-61
2022/11/07 10:37:50;;;;;;;24.92;4.97;;;14.30;99.90;;;;;;5056029;28;20065;-60
2022/11/07 10:40:16;;;;;;;21.52;4.05;;;14.30;99.90;;;;;;5054484;28;20042;-62
2022/11/07 10:42:43;;;;;;;22.23;4.40;;;14.30;99.90;;;;;;5053056;28;20051;-62
2022/11/07 10:45:10;;;;;;;22.80;4.43;;;14.30;99.90;;;;;;5055120;28;20461;-61
2022/11/07 10:47:38;;;;;;;21.55;4.15;;;14.40;99.90;;;;;;5051394;28;20049;-63
2022/11/07 10:50:05;;;;;;;27.75;4.78;;;14.40;99.90;;;;;;5055725;28;20106;-61
2022/11/07 10:52:31;;;;;;;20.55;3.67;;;14.40;99.90;;;;;;5053752;28;20098;-64
2022/11/07 10:54:58;;;;;;;20.10;3.80;;;14.40;99.90;;;;;;5055567;28;20045;-63
2022/11/07 10:57:27;;;;;;;22.70;3.92;;;14.40;99.90;;;;;;5055149;28;20041;-62
2022/11/07 10:59:54;;;;;;;19.13;3.92;;;14.40;99.90;;;;;;5055568;28;20072;-62
2022/11/07 11:02:21;;;;;;;18.33;4.13;;;14.50;99.90;;;;;;5055583;28;20573;-62
2022/11/07 11:04:48;;;;;;;18.70;4.28;;;14.50;99.90;;;;;;5055310;28;20048;-63
2022/11/07 11:07:16;;;;;;;19.30;3.20;;;14.60;99.90;;;;;;5055383;28;20063;-64
2022/11/07 11:09:43;;;;;;;18.10;3.90;;;14.60;99.90;;;;;;5055197;28;20045;-61
2022/11/07 11:12:10;;;;;;;17.75;3.55;;;14.60;99.90;;;;;;5043525;28;20057;-62
2022/11/07 11:14:36;;;;;;;13.50;3.80;;;14.60;99.90;;;;;;5051220;28;20116;-63
2022/11/07 11:17:03;;;;;;;13.00;2.97;;;14.60;99.90;;;;;;5054852;28;20442;-62
2022/11/07 11:19:30;;;;;;;12.85;2.65;;;14.70;99.90;;;;;;5054854;28;20408;-62
2022/11/07 11:21:57;;;;;;;12.98;3.10;;;14.70;99.90;;;;;;5055211;28;20091;-64
2022/11/07 11:24:23;;;;;;;13.98;3.38;;;14.60;99.90;;;;;;5054416;28;20041;-63
2022/11/07 11:26:50;;;;;;;16.52;3.30;;;14.70;99.90;;;;;;5055112;28;20073;-63
2022/11/07 11:29:17;;;;;;;15.18;3.85;;;14.70;99.90;;;;;;5054461;28;20091;-63
2022/11/07 11:31:43;;;;;;;14.30;3.75;;;14.70;99.90;;;;;;5054886;28;20041;-63
2022/11/07 11:34:10;;;;;;;17.52;4.57;;;14.80;99.90;;;;;;5054636;28;20480;-63
2022/11/07 11:36:37;;;;;;;16.00;4.00;;;14.80;99.90;;;;;;5054496;28;20041;-63
2022/11/07 11:39:03;;;;;;;19.25;3.95;;;14.80;99.90;;;;;;5054928;28;20064;-64
2022/11/07 11:41:30;;;;;;;20.88;4.75;;;14.80;99.90;;;;;;5054362;28;20083;-62
2022/11/07 11:43:57;;;;;;;17.40;4.13;;;14.80;99.90;;;;;;5051851;28;20044;-62
2022/11/07 11:46:24;;;;;;;17.88;4.18;;;14.90;99.90;;;;;;5054482;28;20074;-63
2022/11/07 11:48:50;;;;;;;19.73;3.80;;;14.90;99.90;;;;;;5052886;28;20103;-61
2022/11/07 11:51:17;;;;;;;16.08;3.85;;;14.90;99.90;;;;;;5054469;28;20069;-62
2022/11/07 11:53:44;;;;;;;20.67;4.63;;;14.90;99.90;;;;;;5054705;28;20045;-64
2022/11/07 11:56:10;;;;;;;21.80;4.05;;;14.90;99.90;;;;;;5054712;28;20068;-62
2022/11/07 11:58:37;;;;;;;21.15;4.20;;;14.90;99.90;;;;;;5053966;28;20045;-62
2022/11/07 12:01:04;;;;;;;15.55;4.18;;;15.00;99.90;;;;;;5053251;28;20079;-63
2022/11/07 12:03:31;;;;;;;15.50;3.22;;;15.00;99.90;;;;;;5054241;28;20092;-64
2022/11/07 12:05:58;;;;;;;10.13;2.55;;;15.00;99.90;;;;;;5054215;28;20045;-61
2022/11/07 12:08:24;;;;;;;14.32;3.00;;;15.00;99.90;;;;;;5053031;28;20041;-63
2022/11/07 12:10:51;;;;;;;11.80;2.65;;;15.10;99.90;;;;;;5054142;28;20036;-62
2022/11/07 12:13:18;;;;;;;17.58;3.55;;;15.10;99.90;;;;;;5054162;28;20037;-63
2022/11/07 12:15:45;;;;;;;13.15;3.28;;;15.10;99.90;;;;;;5053303;28;20132;-63
2022/11/07 12:18:11;;;;;;;17.25;3.33;;;15.10;99.90;;;;;;5053945;28;20068;-63
2022/11/07 12:20:38;;;;;;;17.27;3.47;;;15.10;99.90;;;;;;5053863;28;20111;-63
2022/11/07 12:23:05;;;;;;;18.30;4.28;;;15.10;99.90;;;;;;5053857;28;20455;-62
2022/11/07 12:25:32;;;;;;;14.00;4.00;;;15.20;99.90;;;;;;5053716;28;20052;-64
2022/11/07 12:27:58;;;;;;;16.83;3.70;;;15.10;99.90;;;;;;5053548;28;20095;-62
2022/11/07 12:30:26;;;;;;;18.65;4.28;;;15.10;99.90;;;;;;5053038;28;20068;-62
2022/11/07 12:32:52;;;;;;;18.23;3.42;;;15.00;99.90;;;;;;5053660;28;20389;-64
2022/11/07 12:35:19;;;;;;;16.83;3.58;;;15.00;99.90;;;;;;5052955;28;20484;-63
2022/11/07 12:37:46;;;;;;;18.15;3.92;;;15.00;99.90;;;;;;5053701;28;20052;-65
2022/11/07 12:40:13;;;;;;;20.65;4.40;;;15.00;99.90;;;;;;5053105;28;20567;-62
2022/11/07 12:42:39;;;;;;;20.00;4.60;;;15.00;99.90;;;;;;5053687;28;20045;-64
2022/11/07 12:45:06;;;;;;;20.20;3.97;;;14.90;99.90;;;;;;5053221;28;20045;-63